createdAt,value
2018-12-26T00:02:52.839Z,16.00
2018-12-26T00:05:21.307Z,4.65
2018-12-26T00:07:49.625Z,4.85
2018-12-26T00:10:17.926Z,7.40
2018-12-26T00:12:46.218Z,10.75
2018-12-26T00:15:14.543Z,29.50
2018-12-26T00:17:42.825Z,6.20
2018-12-26T00:20:11.129Z,9.98
2018-12-26T00:22:39.417Z,6.08
2018-12-26T00:25:07.735Z,6.78
2018-12-26T00:27:36.013Z,6.03
2018-12-26T00:32:58.898Z,9.08
2018-12-26T00:35:27.206Z,6.85
2018-12-26T00:37:55.488Z,6.67
2018-12-26T00:40:23.784Z,4.10
2018-12-26T00:42:52.073Z,4.75
2018-12-26T00:45:20.394Z,8.13
2018-12-26T00:47:48.678Z,6.12
2018-12-26T00:50:17.002Z,7.83
2018-12-26T00:52:45.309Z,7.67
2018-12-26T00:55:13.635Z,13.83
2018-12-26T00:57:41.913Z,4.55
2018-12-26T01:00:10.213Z,5.33
2018-12-26T01:02:38.499Z,4.35
2018-12-26T01:05:06.811Z,6.05
2018-12-26T01:07:35.105Z,8.10
2018-12-26T01:10:43.523Z,18.40
2018-12-26T01:13:11.835Z,15.65
2018-12-26T01:15:40.163Z,9.53
2018-12-26T01:18:08.460Z,17.48
2018-12-26T01:20:36.761Z,13.72
2018-12-26T01:23:05.047Z,6.03
2018-12-26T01:25:33.339Z,7.17
2018-12-26T01:28:01.635Z,12.88
2018-12-26T01:30:29.952Z,10.08
2018-12-26T01:32:58.253Z,15.03
2018-12-26T01:35:26.536Z,7.90
2018-12-26T01:37:54.841Z,14.87
2018-12-26T01:40:23.126Z,8.85
2018-12-26T01:42:51.428Z,15.72
2018-12-26T01:45:19.738Z,6.80
2018-12-26T01:47:48.040Z,15.60
2018-12-26T01:50:16.326Z,8.58
2018-12-26T01:52:44.625Z,11.08
2018-12-26T01:55:12.925Z,11.55
2018-12-26T01:57:41.234Z,11.30
2018-12-26T02:00:09.525Z,12.03
2018-12-26T02:02:37.843Z,6.83
2018-12-26T02:05:06.143Z,7.90
2018-12-26T02:07:34.449Z,14.33
2018-12-26T02:13:10.726Z,12.10
2018-12-26T02:15:39.021Z,11.60
2018-12-26T02:18:07.352Z,13.88
2018-12-26T02:20:35.663Z,11.55
2018-12-26T02:23:03.991Z,10.72
2018-12-26T02:25:32.290Z,14.80
2018-12-26T02:28:00.589Z,9.60
2018-12-26T02:30:28.879Z,16.00
2018-12-26T02:32:57.184Z,18.35
2018-12-26T02:35:25.474Z,9.30
2018-12-26T02:37:53.778Z,14.47
2018-12-26T02:40:22.078Z,12.50
2018-12-26T02:42:50.402Z,11.80
2018-12-26T02:45:18.700Z,16.20
2018-12-26T02:47:47.007Z,15.13
2018-12-26T02:50:15.298Z,14.47
2018-12-26T02:52:43.633Z,12.88
2018-12-26T02:55:11.931Z,14.95
2018-12-26T02:57:40.228Z,8.08
2018-12-26T03:03:22.088Z,11.80
2018-12-26T03:05:50.384Z,13.35
2018-12-26T03:08:18.691Z,10.95
2018-12-26T03:10:47.004Z,10.53
2018-12-26T03:13:15.327Z,11.30
2018-12-26T03:15:43.690Z,9.95
2018-12-26T03:18:11.987Z,13.20
2018-12-26T03:20:40.299Z,10.85
2018-12-26T03:23:08.601Z,9.43
2018-12-26T03:25:36.912Z,7.47
2018-12-26T03:28:05.220Z,16.77
2018-12-26T03:30:33.521Z,14.93
2018-12-26T03:33:01.848Z,14.78
2018-12-26T03:35:30.136Z,14.23
2018-12-26T03:37:58.454Z,15.35
2018-12-26T03:40:26.766Z,19.20
2018-12-26T03:42:55.058Z,11.28
2018-12-26T03:45:23.378Z,9.58
2018-12-26T03:47:51.678Z,12.75
2018-12-26T03:50:19.968Z,9.13
2018-12-26T03:52:48.266Z,13.83
2018-12-26T03:55:16.574Z,10.53
2018-12-26T03:57:44.896Z,16.48
2018-12-26T04:00:13.195Z,13.80
2018-12-26T04:02:41.507Z,10.45
2018-12-26T04:05:09.806Z,12.63
2018-12-26T04:07:38.098Z,9.43
2018-12-26T04:10:06.394Z,9.83
2018-12-26T04:12:34.712Z,11.68
2018-12-26T04:15:03.089Z,11.08
2018-12-26T04:17:31.385Z,15.08
2018-12-26T04:19:59.688Z,15.43
2018-12-26T04:22:27.978Z,9.65
2018-12-26T04:24:56.260Z,9.23
2018-12-26T04:27:24.571Z,8.28
2018-12-26T04:29:52.877Z,11.90
2018-12-26T04:32:21.168Z,17.50
2018-12-26T04:34:49.482Z,20.85
2018-12-26T04:37:17.777Z,13.85
2018-12-26T04:39:46.076Z,20.60
2018-12-26T04:42:14.372Z,16.07
2018-12-26T04:44:42.700Z,11.25
2018-12-26T04:47:11.004Z,8.38
2018-12-26T04:49:39.312Z,16.52
2018-12-26T04:52:07.598Z,9.20
2018-12-26T04:54:35.899Z,8.70
2018-12-26T04:57:04.193Z,10.03
2018-12-26T04:59:32.502Z,16.40
2018-12-26T05:02:00.809Z,14.65
2018-12-26T05:04:29.090Z,8.88
2018-12-26T05:06:57.417Z,23.20
2018-12-26T05:09:25.702Z,18.12
2018-12-26T05:11:53.997Z,18.00
2018-12-26T05:14:22.339Z,13.62
2018-12-26T05:16:50.615Z,10.43
2018-12-26T05:19:18.926Z,8.75
2018-12-26T05:21:47.221Z,9.08
2018-12-26T05:24:15.513Z,21.20
2018-12-26T05:26:43.837Z,10.78
2018-12-26T05:29:12.142Z,9.95
2018-12-26T05:31:40.467Z,10.93
2018-12-26T05:34:08.780Z,15.08
2018-12-26T05:36:37.093Z,18.92
2018-12-26T05:42:19.606Z,23.20
2018-12-26T05:44:47.935Z,12.78
2018-12-26T05:47:16.234Z,16.25
2018-12-26T05:49:44.551Z,16.12
2018-12-26T05:52:12.860Z,15.25
2018-12-26T05:54:41.154Z,12.20
2018-12-26T05:57:09.482Z,25.02
2018-12-26T05:59:37.772Z,10.75
2018-12-26T06:02:06.076Z,17.25
2018-12-26T06:04:34.370Z,11.50
2018-12-26T06:07:02.669Z,8.63
2018-12-26T06:09:30.964Z,13.72
2018-12-26T06:11:59.275Z,15.38
2018-12-26T06:14:27.587Z,17.42
2018-12-26T06:16:55.896Z,23.05
2018-12-26T06:19:24.193Z,15.15
2018-12-26T06:21:52.532Z,11.48
2018-12-26T06:24:20.824Z,13.58
2018-12-26T06:26:49.120Z,23.55
2018-12-26T06:29:17.528Z,13.65
2018-12-26T06:31:45.822Z,21.52
2018-12-26T06:34:14.126Z,21.30
2018-12-26T06:36:42.443Z,19.70
2018-12-26T06:39:10.748Z,17.90
2018-12-26T06:41:39.039Z,21.70
2018-12-26T06:44:07.350Z,21.75
2018-12-26T06:46:35.674Z,17.65
2018-12-26T06:49:03.984Z,28.38
2018-12-26T06:51:32.297Z,17.23
2018-12-26T06:54:00.602Z,35.78
2018-12-26T06:56:28.895Z,14.95
2018-12-26T06:58:57.198Z,20.70
2018-12-26T07:01:25.495Z,20.10
2018-12-26T07:03:53.828Z,13.58
2018-12-26T07:06:22.121Z,21.57
2018-12-26T07:08:50.491Z,14.83
2018-12-26T07:11:18.746Z,20.43
2018-12-26T07:13:47.061Z,16.70
2018-12-26T07:16:15.373Z,20.82
2018-12-26T07:18:43.667Z,22.50
2018-12-26T07:21:11.971Z,24.30
2018-12-26T07:23:40.264Z,24.07
2018-12-26T07:26:08.571Z,19.77
2018-12-26T07:28:36.893Z,25.82
2018-12-26T07:31:05.199Z,24.25
2018-12-26T07:33:33.519Z,11.22
2018-12-26T07:36:01.848Z,11.73
2018-12-26T07:38:30.136Z,10.65
2018-12-26T07:40:58.440Z,17.87
2018-12-26T07:43:26.731Z,17.87
2018-12-26T07:45:55.035Z,16.02
2018-12-26T07:48:23.342Z,9.85
2018-12-26T07:50:51.658Z,14.15
2018-12-26T07:53:19.964Z,27.40
2018-12-26T07:55:48.288Z,13.05
2018-12-26T07:58:17.681Z,11.50
2018-12-26T08:00:46.618Z,25.15
2018-12-26T08:03:14.907Z,18.02
2018-12-26T08:05:43.210Z,15.70
2018-12-26T08:08:11.502Z,12.03
2018-12-26T08:10:39.813Z,12.15
2018-12-26T08:13:08.101Z,11.85
2018-12-26T08:15:36.420Z,11.90
2018-12-26T08:18:04.700Z,12.28
2018-12-26T08:20:33.050Z,10.48
2018-12-26T08:23:01.371Z,16.85
2018-12-26T08:25:29.674Z,15.53
2018-12-26T08:27:57.991Z,16.15
2018-12-26T08:30:26.320Z,13.78
2018-12-26T08:32:54.633Z,13.53
2018-12-26T08:35:22.927Z,15.70
2018-12-26T08:37:51.252Z,14.07
2018-12-26T08:40:19.544Z,11.88
2018-12-26T08:42:47.871Z,12.95
2018-12-26T08:45:16.167Z,15.90
2018-12-26T08:47:44.465Z,8.48
2018-12-26T08:50:12.750Z,7.28
2018-12-26T08:52:41.073Z,7.83
2018-12-26T08:55:09.386Z,15.08
2018-12-26T08:57:37.690Z,10.70
2018-12-26T09:03:20.244Z,12.33
2018-12-26T09:05:48.536Z,10.18
2018-12-26T09:08:16.840Z,12.35
2018-12-26T09:10:45.151Z,9.98
2018-12-26T09:13:13.450Z,11.70
2018-12-26T09:15:41.735Z,7.75
2018-12-26T09:18:10.037Z,9.93
2018-12-26T09:20:38.349Z,10.58
2018-12-26T09:23:06.655Z,14.95
2018-12-26T09:25:54.395Z,12.80
2018-12-26T09:28:22.703Z,10.65
2018-12-26T09:30:50.994Z,17.30
2018-12-26T09:33:19.315Z,10.53
2018-12-26T09:35:47.597Z,7.50
2018-12-26T09:38:15.905Z,11.88
2018-12-26T09:40:44.199Z,18.05
2018-12-26T09:43:12.523Z,13.10
2018-12-26T09:45:40.829Z,11.28
2018-12-26T09:48:09.160Z,12.63
2018-12-26T09:50:37.480Z,12.43
2018-12-26T09:53:05.803Z,9.70
2018-12-26T09:55:34.088Z,9.80
2018-12-26T09:58:02.402Z,11.15
2018-12-26T10:00:30.687Z,6.55
2018-12-26T10:02:58.984Z,6.83
2018-12-26T10:05:27.276Z,13.00
2018-12-26T10:07:55.633Z,8.70
2018-12-26T10:10:23.928Z,14.75
2018-12-26T10:12:52.231Z,12.23
2018-12-26T10:15:20.525Z,18.17
2018-12-26T10:17:48.857Z,14.43
2018-12-26T10:20:17.147Z,11.78
2018-12-26T10:22:45.468Z,8.70
2018-12-26T10:25:13.777Z,11.78
2018-12-26T10:27:42.111Z,18.77
2018-12-26T10:30:10.396Z,6.17
2018-12-26T10:32:38.708Z,10.93
2018-12-26T10:38:20.768Z,9.08
2018-12-26T10:40:49.059Z,12.85
2018-12-26T10:43:17.358Z,7.55
2018-12-26T10:45:45.644Z,7.35
2018-12-26T10:48:13.961Z,6.92
2018-12-26T10:50:42.246Z,9.65
2018-12-26T10:53:10.580Z,7.35
2018-12-26T10:55:38.891Z,5.58
2018-12-26T10:58:07.189Z,10.43
2018-12-26T11:00:35.497Z,8.18
2018-12-26T11:03:03.807Z,8.35
2018-12-26T11:08:20.986Z,6.83
2018-12-26T11:10:49.265Z,10.35
2018-12-26T11:13:17.575Z,113.17
2018-12-26T11:15:45.892Z,20.80
2018-12-26T11:18:14.186Z,20.97
2018-12-26T11:20:42.490Z,27.87
2018-12-26T11:23:10.792Z,37.60
2018-12-26T11:25:39.128Z,29.60
2018-12-26T11:28:07.423Z,19.95
2018-12-26T11:30:35.747Z,724.88
2018-12-26T11:33:11.090Z,516.17
2018-12-26T11:35:39.432Z,293.07
2018-12-26T11:38:07.739Z,300.43
2018-12-26T11:40:36.068Z,212.53
2018-12-26T11:43:04.373Z,117.82
2018-12-26T11:45:32.714Z,118.80
2018-12-26T11:48:01.008Z,92.70
2018-12-26T11:50:29.329Z,125.00
2018-12-26T11:52:57.628Z,87.22
2018-12-26T11:55:25.943Z,59.73
2018-12-26T11:57:54.266Z,19.67
2018-12-26T12:00:22.567Z,9.80
2018-12-26T12:02:50.860Z,10.28
2018-12-26T12:05:19.161Z,8.75
2018-12-26T12:07:47.472Z,7.72
2018-12-26T12:10:15.772Z,8.50
2018-12-26T12:12:44.191Z,10.10
2018-12-26T12:15:12.479Z,6.55
2018-12-26T12:17:40.783Z,7.42
2018-12-26T12:20:49.198Z,7.80
2018-12-26T12:23:17.505Z,9.13
2018-12-26T12:25:45.808Z,5.22
2018-12-26T12:28:14.094Z,7.15
2018-12-26T12:30:42.388Z,13.05
2018-12-26T12:33:10.718Z,7.37
2018-12-26T12:35:39.012Z,4.35
2018-12-26T12:38:07.313Z,5.60
2018-12-26T12:40:35.600Z,6.75
2018-12-26T12:43:03.903Z,8.63
2018-12-26T12:45:32.194Z,7.60
2018-12-26T12:48:00.492Z,5.12
2018-12-26T12:50:28.783Z,8.98
2018-12-26T12:52:57.095Z,10.50
2018-12-26T12:55:25.407Z,5.87
2018-12-26T12:57:53.711Z,5.42
2018-12-26T13:00:22.028Z,10.15
2018-12-26T13:02:50.332Z,8.80
2018-12-26T13:05:18.653Z,7.03
2018-12-26T13:07:46.948Z,5.92
2018-12-26T13:10:15.240Z,10.53
2018-12-26T13:12:43.563Z,9.70
2018-12-26T13:15:11.850Z,7.47
2018-12-26T13:17:40.229Z,7.28
2018-12-26T13:23:22.612Z,13.45
2018-12-26T13:25:50.922Z,8.20
2018-12-26T13:28:19.228Z,10.13
2018-12-26T13:31:06.952Z,14.10
2018-12-26T13:33:35.256Z,7.62
2018-12-26T13:36:03.551Z,17.27
2018-12-26T13:38:31.880Z,14.03
2018-12-26T13:41:00.206Z,15.03
2018-12-26T13:43:28.515Z,13.08
2018-12-26T13:45:56.810Z,19.23
2018-12-26T13:48:25.122Z,15.32
2018-12-26T13:50:53.452Z,16.48
2018-12-26T13:53:21.787Z,16.20
2018-12-26T13:55:50.085Z,19.32
2018-12-26T13:58:30.441Z,24.70
2018-12-26T14:00:58.749Z,21.12
2018-12-26T14:03:27.044Z,12.90
2018-12-26T14:05:55.358Z,25.55
2018-12-26T14:08:23.660Z,26.95
2018-12-26T14:10:51.999Z,22.98
2018-12-26T14:13:20.295Z,15.72
2018-12-26T14:15:48.634Z,20.50
2018-12-26T14:18:16.949Z,38.40
2018-12-26T14:20:45.282Z,26.27
2018-12-26T14:23:13.580Z,19.87
2018-12-26T14:25:41.916Z,20.40
2018-12-26T14:28:10.221Z,20.45
2018-12-26T14:30:38.554Z,20.75
2018-12-26T14:33:06.862Z,24.43
2018-12-26T14:35:35.195Z,25.50
2018-12-26T14:38:03.494Z,20.72
2018-12-26T14:40:31.833Z,21.97
2018-12-26T14:43:00.140Z,14.07
2018-12-26T14:45:28.442Z,37.00
2018-12-26T14:47:56.736Z,16.77
2018-12-26T14:50:25.060Z,24.40
2018-12-26T14:52:53.377Z,26.90
2018-12-26T14:55:21.712Z,15.40
2018-12-26T14:57:50.007Z,37.67
2018-12-26T15:00:20.063Z,17.80
2018-12-26T15:02:48.366Z,15.20
2018-12-26T15:05:16.686Z,19.90
2018-12-26T15:07:44.991Z,18.67
2018-12-26T15:10:13.292Z,18.62
2018-12-26T15:12:41.606Z,15.95
2018-12-26T15:15:10.104Z,12.35
2018-12-26T15:17:38.410Z,10.15
2018-12-26T15:23:21.097Z,9.68
2018-12-26T15:25:49.391Z,24.80
2018-12-26T15:28:17.700Z,15.55
2018-12-26T15:30:46.001Z,16.97
2018-12-26T15:33:14.332Z,12.90
2018-12-26T15:35:42.632Z,17.67
2018-12-26T15:38:10.939Z,30.17
2018-12-26T15:40:39.261Z,26.45
2018-12-26T15:43:07.580Z,17.37
2018-12-26T15:45:35.879Z,14.47
2018-12-26T15:48:04.193Z,16.90
2018-12-26T15:50:32.494Z,19.55
2018-12-26T15:53:00.803Z,28.70
2018-12-26T15:55:29.126Z,15.93
2018-12-26T15:57:57.458Z,13.85
2018-12-26T16:00:25.758Z,20.52
2018-12-26T16:02:54.097Z,16.67
2018-12-26T16:05:22.394Z,22.40
2018-12-26T16:07:50.711Z,14.25
2018-12-26T16:10:19.008Z,14.60
2018-12-26T16:12:47.342Z,27.00
2018-12-26T16:15:15.637Z,16.85
2018-12-26T16:17:43.955Z,22.52
2018-12-26T16:20:12.252Z,16.32
2018-12-26T16:22:40.559Z,18.17
2018-12-26T16:28:09.865Z,22.80
2018-12-26T16:30:45.956Z,22.95
2018-12-26T16:33:08.223Z,21.75
2018-12-26T16:35:36.547Z,35.48
2018-12-26T16:38:04.878Z,18.17
2018-12-26T16:40:33.182Z,26.55
2018-12-26T16:43:01.534Z,28.85
2018-12-26T16:45:29.858Z,19.20
2018-12-26T16:47:58.160Z,26.87
2018-12-26T16:50:27.086Z,16.77
2018-12-26T16:52:56.491Z,22.70
2018-12-26T16:55:24.804Z,23.40
2018-12-26T16:57:53.100Z,29.80
2018-12-26T17:00:21.415Z,28.52
2018-12-26T17:02:49.710Z,22.80
2018-12-26T17:05:18.019Z,24.82
2018-12-26T17:07:46.326Z,17.12
2018-12-26T17:10:54.774Z,28.42
2018-12-26T17:13:23.073Z,28.15
2018-12-26T17:15:51.391Z,25.92
2018-12-26T17:18:19.687Z,32.50
2018-12-26T17:20:48.021Z,19.60
2018-12-26T17:23:16.322Z,28.30
2018-12-26T17:25:44.653Z,27.00
2018-12-26T17:28:12.960Z,21.02
2018-12-26T17:30:41.267Z,19.35
2018-12-26T17:33:09.583Z,15.53
2018-12-26T17:35:37.895Z,28.73
2018-12-26T17:38:06.189Z,20.68
2018-12-26T17:40:34.499Z,21.55
2018-12-26T17:43:02.805Z,25.27
2018-12-26T17:45:32.324Z,21.37
2018-12-26T17:48:01.157Z,20.27
2018-12-26T17:50:49.363Z,16.42
2018-12-26T18:00:11.687Z,29.18
2018-12-26T18:02:39.987Z,17.60
2018-12-26T18:05:08.311Z,17.37
2018-12-26T18:07:36.648Z,23.52
2018-12-26T18:13:05.616Z,14.73
2018-12-26T18:15:33.917Z,15.55
2018-12-26T18:18:02.239Z,32.55
2018-12-26T18:20:30.614Z,13.85
2018-12-26T18:22:58.929Z,17.35
2018-12-26T18:25:27.245Z,11.65
2018-12-26T18:27:55.553Z,12.75
2018-12-26T18:30:23.844Z,8.80
2018-12-26T18:32:52.175Z,10.55
2018-12-26T18:35:20.468Z,9.28
2018-12-26T18:37:48.805Z,15.38
2018-12-26T18:40:17.106Z,16.15
2018-12-26T18:42:45.419Z,13.95
2018-12-26T18:45:13.737Z,11.50
2018-12-26T18:47:42.047Z,16.45
2018-12-26T18:50:10.481Z,11.10
2018-12-26T18:52:38.793Z,21.80
2018-12-26T18:55:07.165Z,18.60
2018-12-26T18:57:35.473Z,14.40
2018-12-26T19:03:17.230Z,18.07
2018-12-26T19:05:45.531Z,13.43
2018-12-26T19:08:13.844Z,12.45
2018-12-26T19:10:42.146Z,15.65
2018-12-26T19:13:10.465Z,23.67
2018-12-26T19:15:38.788Z,23.47
2018-12-26T19:18:07.093Z,13.10
2018-12-26T19:20:35.412Z,14.03
2018-12-26T19:23:03.727Z,21.82
2018-12-26T19:25:32.031Z,17.57
2018-12-26T19:28:00.361Z,16.07
2018-12-26T19:30:28.664Z,11.28
2018-12-26T19:32:56.971Z,15.08
2018-12-26T19:35:25.268Z,15.03
2018-12-26T19:37:53.565Z,19.67
2018-12-26T19:40:21.885Z,16.77
2018-12-26T19:42:50.184Z,14.25
2018-12-26T19:45:18.568Z,15.85
2018-12-26T19:47:46.812Z,24.55
2018-12-26T19:50:15.125Z,17.65
2018-12-26T19:52:43.444Z,16.65
2018-12-26T19:55:11.755Z,12.37
2018-12-26T19:57:40.051Z,16.67
2018-12-26T20:00:48.471Z,12.80
2018-12-26T20:03:16.766Z,20.43
2018-12-26T20:05:45.063Z,9.85
2018-12-26T20:08:13.353Z,10.18
2018-12-26T20:10:41.664Z,13.18
2018-12-26T20:13:09.959Z,12.20
2018-12-26T20:15:38.268Z,19.48
2018-12-26T20:18:06.575Z,9.93
2018-12-26T20:20:34.875Z,11.25
2018-12-26T20:23:03.177Z,17.48
2018-12-26T20:25:31.485Z,13.13
2018-12-26T20:27:59.789Z,9.05
2018-12-26T20:30:28.100Z,14.65
2018-12-26T20:32:56.390Z,15.83
2018-12-26T20:35:24.703Z,15.38
2018-12-26T20:37:52.990Z,10.82
2018-12-26T20:40:21.297Z,15.50
2018-12-26T20:42:49.599Z,13.53
2018-12-26T20:45:17.902Z,15.55
2018-12-26T20:47:46.194Z,12.70
2018-12-26T20:50:14.495Z,8.18
2018-12-26T20:52:42.777Z,13.05
2018-12-26T20:55:11.084Z,11.78
2018-12-26T20:57:39.386Z,14.23
2018-12-26T21:00:47.829Z,18.17
2018-12-26T21:03:16.146Z,20.08
2018-12-26T21:05:44.454Z,17.25
2018-12-26T21:08:12.765Z,11.70
2018-12-26T21:10:41.080Z,11.08
2018-12-26T21:13:09.370Z,10.72
2018-12-26T21:15:37.679Z,15.55
2018-12-26T21:18:05.997Z,13.78
2018-12-26T21:20:34.301Z,15.28
2018-12-26T21:23:02.595Z,21.30
2018-12-26T21:25:30.908Z,16.90
2018-12-26T21:27:59.197Z,25.60
2018-12-26T21:30:27.507Z,16.52
2018-12-26T21:32:55.900Z,16.70
2018-12-26T21:35:24.208Z,14.68
2018-12-26T21:37:52.495Z,8.80
2018-12-26T21:40:20.889Z,22.60
2018-12-26T21:42:49.176Z,9.83
2018-12-26T21:45:17.485Z,21.25
2018-12-26T21:47:45.774Z,18.92
2018-12-26T21:50:14.079Z,15.93
2018-12-26T21:52:42.397Z,16.97
2018-12-26T21:55:10.714Z,31.55
2018-12-26T21:57:39.005Z,13.80
2018-12-26T22:00:47.453Z,20.05
2018-12-26T22:03:15.752Z,18.27
2018-12-26T22:05:44.056Z,19.65
2018-12-26T22:08:12.374Z,16.50
2018-12-26T22:10:40.718Z,15.78
2018-12-26T22:13:09.017Z,19.85
2018-12-26T22:15:37.307Z,12.63
2018-12-26T22:18:05.616Z,15.28
2018-12-26T22:20:33.916Z,11.00
2018-12-26T22:23:02.226Z,22.50
2018-12-26T22:25:30.524Z,14.28
2018-12-26T22:27:58.836Z,12.73
2018-12-26T22:30:27.152Z,31.55
2018-12-26T22:32:55.469Z,17.10
2018-12-26T22:35:23.758Z,25.08
2018-12-26T22:37:52.091Z,20.30
2018-12-26T22:40:20.379Z,17.27
2018-12-26T22:42:48.691Z,17.02
2018-12-26T22:45:16.983Z,18.73
2018-12-26T22:47:45.298Z,10.55
2018-12-26T22:50:13.601Z,26.48
2018-12-26T22:52:41.905Z,18.73
2018-12-26T22:55:10.203Z,19.20
2018-12-26T22:57:38.522Z,18.92
2018-12-26T23:03:07.940Z,17.27
2018-12-26T23:05:36.255Z,11.45
2018-12-26T23:08:04.559Z,25.95
2018-12-26T23:10:32.861Z,14.68
2018-12-26T23:13:01.185Z,16.30
2018-12-26T23:15:29.479Z,25.48
2018-12-26T23:17:57.785Z,37.98
2018-12-26T23:20:26.083Z,26.23
2018-12-26T23:22:54.397Z,16.95
2018-12-26T23:25:22.693Z,18.65
2018-12-26T23:27:51.020Z,21.02
2018-12-26T23:30:19.312Z,17.87
2018-12-26T23:32:47.601Z,33.20
2018-12-26T23:35:15.908Z,19.20
2018-12-26T23:37:44.198Z,23.02
2018-12-26T23:40:12.530Z,30.92
2018-12-26T23:42:40.823Z,27.90
2018-12-26T23:45:09.142Z,20.80
2018-12-26T23:47:37.435Z,15.78
2018-12-26T23:50:05.745Z,21.07
2018-12-26T23:52:34.212Z,20.50
2018-12-26T23:55:02.519Z,22.00
2018-12-26T23:57:30.818Z,15.63
2018-12-26T23:59:59.137Z,16.20
